sensor_id;sensor_type;location;lat;lon;timestamp;P1;durP1;ratioP1;P2;durP2;ratioP2
39032;SDS011;24794;51.982;5.878;2023-01-10T00:00:27;19.45;;;2.75;;
39032;SDS011;24794;51.982;5.878;2023-01-10T00:01:34;13.25;;;2.50;;
39032;SDS011;24794;51.982;5.878;2023-01-10T00:02:34;25.20;;;3.30;;
39032;SDS011;24794;51.982;5.878;2023-01-10T00:03:35;14.15;;;2.50;;
39032;SDS011;24794;51.982;5.878;2023-01-10T00:04:36;16.98;;;3.35;;
39032;SDS011;24794;51.982;5.878;2023-01-10T00:05:37;15.48;;;3.08;;
39032;SDS011;24794;51.982;5.878;2023-01-10T00:06:38;11.57;;;2.33;;
39032;SDS011;24794;51.982;5.878;2023-01-10T00:07:39;14.88;;;2.42;;
39032;SDS011;24794;51.982;5.878;2023-01-10T00:08:39;18.58;;;2.75;;
39032;SDS011;24794;51.982;5.878;2023-01-10T00:09:40;20.23;;;3.00;;
39032;SDS011;24794;51.982;5.878;2023-01-10T00:10:40;18.00;;;3.22;;
39032;SDS011;24794;51.982;5.878;2023-01-10T00:11:41;10.95;;;2.63;;
39032;SDS011;24794;51.982;5.878;2023-01-10T00:13:00;15.27;;;2.88;;
39032;SDS011;24794;51.982;5.878;2023-01-10T00:14:19;11.98;;;2.67;;
39032;SDS011;24794;51.982;5.878;2023-01-10T00:15:20;16.73;;;2.92;;
39032;SDS011;24794;51.982;5.878;2023-01-10T00:16:21;8.32;;;2.55;;
39032;SDS011;24794;51.982;5.878;2023-01-10T00:17:22;10.55;;;2.50;;
39032;SDS011;24794;51.982;5.878;2023-01-10T00:18:22;14.85;;;2.50;;
39032;SDS011;24794;51.982;5.878;2023-01-10T00:19:23;10.55;;;2.80;;
39032;SDS011;24794;51.982;5.878;2023-01-10T00:20:24;17.23;;;3.10;;
39032;SDS011;24794;51.982;5.878;2023-01-10T00:21:24;16.30;;;3.22;;
39032;SDS011;24794;51.982;5.878;2023-01-10T00:22:27;14.93;;;2.88;;
39032;SDS011;24794;51.982;5.878;2023-01-10T00:23:28;14.20;;;2.83;;
39032;SDS011;24794;51.982;5.878;2023-01-10T00:24:28;13.25;;;2.67;;
39032;SDS011;24794;51.982;5.878;2023-01-10T00:25:29;14.68;;;2.80;;
39032;SDS011;24794;51.982;5.878;2023-01-10T00:26:32;11.85;;;2.40;;
39032;SDS011;24794;51.982;5.878;2023-01-10T00:27:32;13.85;;;3.03;;
39032;SDS011;24794;51.982;5.878;2023-01-10T00:28:35;11.50;;;2.80;;
39032;SDS011;24794;51.982;5.878;2023-01-10T00:29:38;11.30;;;2.72;;
39032;SDS011;24794;51.982;5.878;2023-01-10T00:30:38;14.48;;;2.20;;
39032;SDS011;24794;51.982;5.878;2023-01-10T00:31:39;12.68;;;2.80;;
39032;SDS011;24794;51.982;5.878;2023-01-10T00:32:41;14.05;;;2.53;;
39032;SDS011;24794;51.982;5.878;2023-01-10T00:33:42;11.23;;;2.63;;
39032;SDS011;24794;51.982;5.878;2023-01-10T00:34:43;18.45;;;3.38;;
39032;SDS011;24794;51.982;5.878;2023-01-10T00:35:43;18.05;;;3.33;;
39032;SDS011;24794;51.982;5.878;2023-01-10T00:36:45;15.18;;;3.17;;
39032;SDS011;24794;51.982;5.878;2023-01-10T00:37:49;13.25;;;2.65;;
39032;SDS011;24794;51.982;5.878;2023-01-10T00:38:51;9.20;;;2.70;;
39032;SDS011;24794;51.982;5.878;2023-01-10T00:39:51;13.77;;;2.88;;
39032;SDS011;24794;51.982;5.878;2023-01-10T00:40:52;14.57;;;2.38;;
39032;SDS011;24794;51.982;5.878;2023-01-10T00:41:52;12.73;;;2.80;;
39032;SDS011;24794;51.982;5.878;2023-01-10T00:43:12;15.00;;;2.80;;
39032;SDS011;24794;51.982;5.878;2023-01-10T00:44:31;13.05;;;2.72;;
39032;SDS011;24794;51.982;5.878;2023-01-10T00:45:31;11.95;;;2.83;;
39032;SDS011;24794;51.982;5.878;2023-01-10T00:46:32;10.43;;;2.78;;
39032;SDS011;24794;51.982;5.878;2023-01-10T00:47:33;12.95;;;3.00;;
39032;SDS011;24794;51.982;5.878;2023-01-10T00:48:33;11.90;;;2.63;;
39032;SDS011;24794;51.982;5.878;2023-01-10T00:49:34;12.40;;;2.50;;
39032;SDS011;24794;51.982;5.878;2023-01-10T00:50:34;16.88;;;3.45;;
39032;SDS011;24794;51.982;5.878;2023-01-10T00:51:35;10.50;;;2.50;;
39032;SDS011;24794;51.982;5.878;2023-01-10T00:52:36;18.80;;;3.28;;
39032;SDS011;24794;51.982;5.878;2023-01-10T00:53:36;11.35;;;2.78;;
39032;SDS011;24794;51.982;5.878;2023-01-10T00:54:37;14.65;;;2.70;;
39032;SDS011;24794;51.982;5.878;2023-01-10T00:55:37;11.45;;;2.50;;
39032;SDS011;24794;51.982;5.878;2023-01-10T00:56:39;12.85;;;2.80;;
39032;SDS011;24794;51.982;5.878;2023-01-10T00:57:40;11.57;;;2.42;;
39032;SDS011;24794;51.982;5.878;2023-01-10T00:58:41;10.73;;;2.65;;
39032;SDS011;24794;51.982;5.878;2023-01-10T00:59:43;13.02;;;2.70;;
39032;SDS011;24794;51.982;5.878;2023-01-10T01:00:44;13.60;;;2.70;;
39032;SDS011;24794;51.982;5.878;2023-01-10T01:01:45;9.65;;;2.30;;
39032;SDS011;24794;51.982;5.878;2023-01-10T01:02:46;15.20;;;2.50;;
39032;SDS011;24794;51.982;5.878;2023-01-10T01:03:49;14.80;;;2.38;;
39032;SDS011;24794;51.982;5.878;2023-01-10T01:04:49;12.30;;;2.85;;
39032;SDS011;24794;51.982;5.878;2023-01-10T01:05:50;9.18;;;2.40;;
39032;SDS011;24794;51.982;5.878;2023-01-10T01:06:51;13.88;;;3.20;;
39032;SDS011;24794;51.982;5.878;2023-01-10T01:07:51;8.63;;;2.38;;
39032;SDS011;24794;51.982;5.878;2023-01-10T01:08:52;11.38;;;2.63;;
39032;SDS011;24794;51.982;5.878;2023-01-10T01:09:53;13.30;;;2.83;;
39032;SDS011;24794;51.982;5.878;2023-01-10T01:11:12;21.42;;;3.15;;
39032;SDS011;24794;51.982;5.878;2023-01-10T01:12:13;11.40;;;2.85;;
39032;SDS011;24794;51.982;5.878;2023-01-10T01:13:14;16.92;;;2.65;;
39032;SDS011;24794;51.982;5.878;2023-01-10T01:14:17;13.23;;;2.55;;
39032;SDS011;24794;51.982;5.878;2023-01-10T01:15:18;10.57;;;2.20;;
39032;SDS011;24794;51.982;5.878;2023-01-10T01:16:19;14.20;;;2.85;;
39032;SDS011;24794;51.982;5.878;2023-01-10T01:17:20;12.52;;;2.67;;
39032;SDS011;24794;51.982;5.878;2023-01-10T01:18:20;11.05;;;2.40;;
39032;SDS011;24794;51.982;5.878;2023-01-10T01:19:21;8.02;;;1.90;;
39032;SDS011;24794;51.982;5.878;2023-01-10T01:20:22;8.73;;;2.05;;
39032;SDS011;24794;51.982;5.878;2023-01-10T01:21:22;9.55;;;1.85;;
39032;SDS011;24794;51.982;5.878;2023-01-10T01:22:27;9.63;;;1.95;;
39032;SDS011;24794;51.982;5.878;2023-01-10T01:23:28;7.65;;;2.00;;
39032;SDS011;24794;51.982;5.878;2023-01-10T01:24:29;12.18;;;2.22;;
39032;SDS011;24794;51.982;5.878;2023-01-10T01:25:30;10.30;;;2.22;;
39032;SDS011;24794;51.982;5.878;2023-01-10T01:26:30;9.68;;;2.28;;
39032;SDS011;24794;51.982;5.878;2023-01-10T01:27:31;11.73;;;2.30;;
39032;SDS011;24794;51.982;5.878;2023-01-10T01:28:32;8.90;;;2.13;;
39032;SDS011;24794;51.982;5.878;2023-01-10T01:29:32;7.63;;;1.85;;
39032;SDS011;24794;51.982;5.878;2023-01-10T01:30:33;10.20;;;2.05;;
39032;SDS011;24794;51.982;5.878;2023-01-10T01:31:33;8.02;;;1.83;;
39032;SDS011;24794;51.982;5.878;2023-01-10T01:32:34;11.32;;;1.73;;
39032;SDS011;24794;51.982;5.878;2023-01-10T01:33:35;16.10;;;2.47;;
39032;SDS011;24794;51.982;5.878;2023-01-10T01:34:36;9.20;;;2.00;;
39032;SDS011;24794;51.982;5.878;2023-01-10T01:35:36;11.20;;;2.45;;
39032;SDS011;24794;51.982;5.878;2023-01-10T01:36:44;12.25;;;2.35;;
39032;SDS011;24794;51.982;5.878;2023-01-10T01:37:46;11.52;;;2.30;;
39032;SDS011;24794;51.982;5.878;2023-01-10T01:38:46;12.70;;;2.40;;
39032;SDS011;24794;51.982;5.878;2023-01-10T01:39:47;13.75;;;2.42;;
39032;SDS011;24794;51.982;5.878;2023-01-10T01:40:47;9.32;;;2.40;;
39032;SDS011;24794;51.982;5.878;2023-01-10T01:41:48;12.00;;;2.30;;
39032;SDS011;24794;51.982;5.878;2023-01-10T01:42:59;15.68;;;2.50;;
39032;SDS011;24794;51.982;5.878;2023-01-10T01:44:06;16.73;;;2.75;;
39032;SDS011;24794;51.982;5.878;2023-01-10T01:46:14;14.00;;;2.85;;
39032;SDS011;24794;51.982;5.878;2023-01-10T01:47:20;12.43;;;2.88;;
39032;SDS011;24794;51.982;5.878;2023-01-10T01:49:42;13.32;;;2.17;;
39032;SDS011;24794;51.982;5.878;2023-01-10T01:50:52;11.52;;;2.38;;
39032;SDS011;24794;51.982;5.878;2023-01-10T01:51:58;10.35;;;1.83;;
39032;SDS011;24794;51.982;5.878;2023-01-10T01:53:11;13.73;;;2.40;;
39032;SDS011;24794;51.982;5.878;2023-01-10T01:54:24;15.80;;;2.40;;
39032;SDS011;24794;51.982;5.878;2023-01-10T01:55:25;12.25;;;2.28;;
39032;SDS011;24794;51.982;5.878;2023-01-10T01:56:30;20.95;;;2.95;;
39032;SDS011;24794;51.982;5.878;2023-01-10T01:57:36;15.70;;;2.45;;
39032;SDS011;24794;51.982;5.878;2023-01-10T01:58:40;14.63;;;2.30;;
39032;SDS011;24794;51.982;5.878;2023-01-10T01:59:53;20.10;;;3.20;;
39032;SDS011;24794;51.982;5.878;2023-01-10T02:00:55;13.27;;;2.45;;
39032;SDS011;24794;51.982;5.878;2023-01-10T02:01:59;16.70;;;2.40;;
39032;SDS011;24794;51.982;5.878;2023-01-10T02:03:11;13.52;;;2.17;;
39032;SDS011;24794;51.982;5.878;2023-01-10T02:04:17;18.27;;;2.30;;
39032;SDS011;24794;51.982;5.878;2023-01-10T02:05:22;16.58;;;2.88;;
39032;SDS011;24794;51.982;5.878;2023-01-10T02:06:24;14.77;;;2.55;;
39032;SDS011;24794;51.982;5.878;2023-01-10T02:07:26;11.48;;;2.95;;
39032;SDS011;24794;51.982;5.878;2023-01-10T02:08:30;13.10;;;2.45;;
39032;SDS011;24794;51.982;5.878;2023-01-10T02:09:32;18.67;;;2.97;;
39032;SDS011;24794;51.982;5.878;2023-01-10T02:11:43;17.00;;;2.35;;
39032;SDS011;24794;51.982;5.878;2023-01-10T02:12:44;10.88;;;2.13;;
39032;SDS011;24794;51.982;5.878;2023-01-10T02:13:49;14.23;;;2.42;;
39032;SDS011;24794;51.982;5.878;2023-01-10T02:14:50;10.05;;;2.28;;
39032;SDS011;24794;51.982;5.878;2023-01-10T02:15:52;18.05;;;2.60;;
39032;SDS011;24794;51.982;5.878;2023-01-10T02:16:52;11.63;;;2.35;;
39032;SDS011;24794;51.982;5.878;2023-01-10T02:17:53;14.00;;;1.88;;
39032;SDS011;24794;51.982;5.878;2023-01-10T02:18:54;12.77;;;2.20;;
39032;SDS011;24794;51.982;5.878;2023-01-10T02:21:32;11.55;;;2.30;;
39032;SDS011;24794;51.982;5.878;2023-01-10T02:22:57;11.95;;;1.90;;
39032;SDS011;24794;51.982;5.878;2023-01-10T02:24:26;11.25;;;1.95;;
39032;SDS011;24794;51.982;5.878;2023-01-10T02:27:21;11.45;;;2.13;;
39032;SDS011;24794;51.982;5.878;2023-01-10T02:28:40;12.00;;;2.03;;
39032;SDS011;24794;51.982;5.878;2023-01-10T02:30:13;11.90;;;2.05;;
39032;SDS011;24794;51.982;5.878;2023-01-10T02:35:36;14.05;;;2.20;;
39032;SDS011;24794;51.982;5.878;2023-01-10T02:40:45;11.02;;;2.45;;
39032;SDS011;24794;51.982;5.878;2023-01-10T02:42:12;11.40;;;2.00;;
39032;SDS011;24794;51.982;5.878;2023-01-10T02:43:19;12.98;;;1.95;;
39032;SDS011;24794;51.982;5.878;2023-01-10T02:45:49;14.27;;;2.13;;
39032;SDS011;24794;51.982;5.878;2023-01-10T02:46:58;16.40;;;2.38;;
39032;SDS011;24794;51.982;5.878;2023-01-10T02:48:03;15.10;;;2.17;;
39032;SDS011;24794;51.982;5.878;2023-01-10T02:49:03;14.43;;;2.10;;
39032;SDS011;24794;51.982;5.878;2023-01-10T02:51:25;15.65;;;2.38;;
39032;SDS011;24794;51.982;5.878;2023-01-10T02:52:27;8.80;;;2.20;;
39032;SDS011;24794;51.982;5.878;2023-01-10T02:54:33;17.13;;;2.50;;
39032;SDS011;24794;51.982;5.878;2023-01-10T02:56:57;16.48;;;2.88;;
39032;SDS011;24794;51.982;5.878;2023-01-10T03:01:04;12.38;;;2.40;;
39032;SDS011;24794;51.982;5.878;2023-01-10T03:02:21;13.68;;;2.38;;
39032;SDS011;24794;51.982;5.878;2023-01-10T03:03:32;13.95;;;1.98;;
39032;SDS011;24794;51.982;5.878;2023-01-10T03:08:07;19.92;;;3.55;;
39032;SDS011;24794;51.982;5.878;2023-01-10T03:09:32;14.77;;;4.35;;
39032;SDS011;24794;51.982;5.878;2023-01-10T03:10:46;17.83;;;3.30;;
39032;SDS011;24794;51.982;5.878;2023-01-10T03:12:03;13.07;;;3.17;;
39032;SDS011;24794;51.982;5.878;2023-01-10T03:13:18;12.93;;;3.00;;
39032;SDS011;24794;51.982;5.878;2023-01-10T03:14:44;13.77;;;2.10;;
39032;SDS011;24794;51.982;5.878;2023-01-10T03:15:46;17.02;;;2.22;;
39032;SDS011;24794;51.982;5.878;2023-01-10T03:16:51;16.35;;;2.50;;
39032;SDS011;24794;51.982;5.878;2023-01-10T03:17:55;15.05;;;2.50;;
39032;SDS011;24794;51.982;5.878;2023-01-10T03:19:01;16.95;;;2.83;;
39032;SDS011;24794;51.982;5.878;2023-01-10T03:20:06;10.25;;;1.85;;
39032;SDS011;24794;51.982;5.878;2023-01-10T03:21:08;18.73;;;2.58;;
39032;SDS011;24794;51.982;5.878;2023-01-10T03:22:10;16.25;;;2.60;;
39032;SDS011;24794;51.982;5.878;2023-01-10T03:23:12;22.52;;;2.83;;
39032;SDS011;24794;51.982;5.878;2023-01-10T03:24:18;21.27;;;2.63;;
39032;SDS011;24794;51.982;5.878;2023-01-10T03:25:25;18.85;;;2.15;;
39032;SDS011;24794;51.982;5.878;2023-01-10T03:27:56;14.18;;;2.20;;
39032;SDS011;24794;51.982;5.878;2023-01-10T03:29:03;15.73;;;2.35;;
39032;SDS011;24794;51.982;5.878;2023-01-10T03:31:30;21.35;;;2.50;;
39032;SDS011;24794;51.982;5.878;2023-01-10T03:32:35;15.90;;;2.90;;
39032;SDS011;24794;51.982;5.878;2023-01-10T03:33:36;19.73;;;3.95;;
39032;SDS011;24794;51.982;5.878;2023-01-10T03:34:37;18.55;;;2.17;;
39032;SDS011;24794;51.982;5.878;2023-01-10T03:38:20;15.82;;;2.80;;
39032;SDS011;24794;51.982;5.878;2023-01-10T03:39:39;13.43;;;2.80;;
39032;SDS011;24794;51.982;5.878;2023-01-10T03:40:42;16.65;;;3.28;;
39032;SDS011;24794;51.982;5.878;2023-01-10T03:42:01;23.38;;;3.10;;
39032;SDS011;24794;51.982;5.878;2023-01-10T03:45:00;15.85;;;2.58;;
39032;SDS011;24794;51.982;5.878;2023-01-10T03:46:11;12.90;;;2.20;;
39032;SDS011;24794;51.982;5.878;2023-01-10T03:47:40;12.20;;;2.65;;
39032;SDS011;24794;51.982;5.878;2023-01-10T03:48:45;15.77;;;2.90;;
39032;SDS011;24794;51.982;5.878;2023-01-10T03:49:48;23.33;;;2.80;;
39032;SDS011;24794;51.982;5.878;2023-01-10T03:50:53;16.90;;;2.83;;
39032;SDS011;24794;51.982;5.878;2023-01-10T03:51:56;22.27;;;2.92;;
39032;SDS011;24794;51.982;5.878;2023-01-10T03:52:58;13.13;;;2.70;;
39032;SDS011;24794;51.982;5.878;2023-01-10T03:53:59;14.48;;;3.13;;
39032;SDS011;24794;51.982;5.878;2023-01-10T03:55:01;12.93;;;2.97;;
39032;SDS011;24794;51.982;5.878;2023-01-10T03:56:04;13.80;;;3.00;;
39032;SDS011;24794;51.982;5.878;2023-01-10T03:57:06;17.40;;;2.90;;
39032;SDS011;24794;51.982;5.878;2023-01-10T03:58:06;19.58;;;3.20;;
39032;SDS011;24794;51.982;5.878;2023-01-10T03:59:07;17.35;;;3.28;;
39032;SDS011;24794;51.982;5.878;2023-01-10T04:00:08;15.32;;;2.80;;
39032;SDS011;24794;51.982;5.878;2023-01-10T04:01:09;19.77;;;3.10;;
39032;SDS011;24794;51.982;5.878;2023-01-10T04:02:10;14.18;;;3.03;;
39032;SDS011;24794;51.982;5.878;2023-01-10T04:03:11;20.27;;;3.60;;
39032;SDS011;24794;51.982;5.878;2023-01-10T04:04:11;21.70;;;3.72;;
39032;SDS011;24794;51.982;5.878;2023-01-10T04:05:12;23.40;;;4.00;;
39032;SDS011;24794;51.982;5.878;2023-01-10T04:06:13;18.52;;;3.40;;
39032;SDS011;24794;51.982;5.878;2023-01-10T04:07:13;22.15;;;3.97;;
39032;SDS011;24794;51.982;5.878;2023-01-10T04:08:14;27.48;;;3.50;;
39032;SDS011;24794;51.982;5.878;2023-01-10T04:09:14;27.30;;;3.85;;
39032;SDS011;24794;51.982;5.878;2023-01-10T04:10:15;17.25;;;3.03;;
39032;SDS011;24794;51.982;5.878;2023-01-10T04:11:16;18.65;;;3.55;;
39032;SDS011;24794;51.982;5.878;2023-01-10T04:12:16;21.27;;;3.55;;
39032;SDS011;24794;51.982;5.878;2023-01-10T04:13:17;20.55;;;3.33;;
39032;SDS011;24794;51.982;5.878;2023-01-10T04:14:18;26.02;;;4.15;;
39032;SDS011;24794;51.982;5.878;2023-01-10T04:15:18;23.10;;;3.70;;
39032;SDS011;24794;51.982;5.878;2023-01-10T04:16:19;21.05;;;3.70;;
39032;SDS011;24794;51.982;5.878;2023-01-10T04:17:20;20.50;;;3.92;;
39032;SDS011;24794;51.982;5.878;2023-01-10T04:18:20;14.57;;;3.60;;
39032;SDS011;24794;51.982;5.878;2023-01-10T04:19:21;17.55;;;3.72;;
39032;SDS011;24794;51.982;5.878;2023-01-10T04:20:22;19.63;;;3.90;;
39032;SDS011;24794;51.982;5.878;2023-01-10T04:21:25;16.35;;;3.75;;
39032;SDS011;24794;51.982;5.878;2023-01-10T04:22:26;22.80;;;3.95;;
39032;SDS011;24794;51.982;5.878;2023-01-10T04:23:27;16.73;;;3.40;;
39032;SDS011;24794;51.982;5.878;2023-01-10T04:24:27;20.67;;;4.32;;
39032;SDS011;24794;51.982;5.878;2023-01-10T04:25:28;26.20;;;4.38;;
39032;SDS011;24794;51.982;5.878;2023-01-10T04:26:29;26.10;;;5.00;;
39032;SDS011;24794;51.982;5.878;2023-01-10T04:27:29;20.88;;;4.50;;
39032;SDS011;24794;51.982;5.878;2023-01-10T04:28:30;23.08;;;4.57;;
39032;SDS011;24794;51.982;5.878;2023-01-10T04:29:30;24.90;;;4.40;;
39032;SDS011;24794;51.982;5.878;2023-01-10T04:30:31;17.35;;;4.07;;
39032;SDS011;24794;51.982;5.878;2023-01-10T04:31:32;26.90;;;5.00;;
39032;SDS011;24794;51.982;5.878;2023-01-10T04:32:33;19.38;;;4.15;;
39032;SDS011;24794;51.982;5.878;2023-01-10T04:33:34;21.58;;;4.07;;
39032;SDS011;24794;51.982;5.878;2023-01-10T04:34:35;28.75;;;5.13;;
39032;SDS011;24794;51.982;5.878;2023-01-10T04:35:35;23.98;;;4.65;;
39032;SDS011;24794;51.982;5.878;2023-01-10T04:36:36;20.52;;;4.40;;
39032;SDS011;24794;51.982;5.878;2023-01-10T04:37:36;28.08;;;4.72;;
39032;SDS011;24794;51.982;5.878;2023-01-10T04:38:37;25.63;;;4.65;;
39032;SDS011;24794;51.982;5.878;2023-01-10T04:39:37;24.48;;;4.85;;
39032;SDS011;24794;51.982;5.878;2023-01-10T04:40:38;24.33;;;5.03;;
39032;SDS011;24794;51.982;5.878;2023-01-10T04:41:39;26.98;;;5.72;;
39032;SDS011;24794;51.982;5.878;2023-01-10T04:42:39;26.02;;;5.45;;
39032;SDS011;24794;51.982;5.878;2023-01-10T04:43:40;18.30;;;4.93;;
39032;SDS011;24794;51.982;5.878;2023-01-10T04:44:40;22.33;;;7.55;;
39032;SDS011;24794;51.982;5.878;2023-01-10T04:45:42;20.23;;;4.78;;
39032;SDS011;24794;51.982;5.878;2023-01-10T04:46:42;24.67;;;4.75;;
39032;SDS011;24794;51.982;5.878;2023-01-10T04:47:47;22.25;;;4.82;;
39032;SDS011;24794;51.982;5.878;2023-01-10T04:48:49;22.67;;;4.47;;
39032;SDS011;24794;51.982;5.878;2023-01-10T04:49:50;23.10;;;4.22;;
39032;SDS011;24794;51.982;5.878;2023-01-10T04:50:50;16.98;;;4.30;;
39032;SDS011;24794;51.982;5.878;2023-01-10T04:51:52;17.15;;;4.10;;
39032;SDS011;24794;51.982;5.878;2023-01-10T04:52:52;19.98;;;5.05;;
39032;SDS011;24794;51.982;5.878;2023-01-10T04:53:53;23.00;;;5.15;;
39032;SDS011;24794;51.982;5.878;2023-01-10T04:54:54;21.88;;;5.28;;
39032;SDS011;24794;51.982;5.878;2023-01-10T04:56:00;19.42;;;4.35;;
39032;SDS011;24794;51.982;5.878;2023-01-10T04:57:04;15.40;;;4.38;;
39032;SDS011;24794;51.982;5.878;2023-01-10T04:58:05;21.25;;;5.28;;
39032;SDS011;24794;51.982;5.878;2023-01-10T04:59:06;23.85;;;5.40;;
39032;SDS011;24794;51.982;5.878;2023-01-10T05:00:08;21.35;;;5.05;;
39032;SDS011;24794;51.982;5.878;2023-01-10T05:01:11;25.83;;;4.70;;
39032;SDS011;24794;51.982;5.878;2023-01-10T05:02:14;30.83;;;4.95;;
39032;SDS011;24794;51.982;5.878;2023-01-10T05:03:15;20.95;;;4.68;;
39032;SDS011;24794;51.982;5.878;2023-01-10T05:04:19;26.70;;;4.95;;
39032;SDS011;24794;51.982;5.878;2023-01-10T05:05:19;17.98;;;4.68;;
39032;SDS011;24794;51.982;5.878;2023-01-10T05:06:20;27.70;;;4.97;;
39032;SDS011;24794;51.982;5.878;2023-01-10T05:07:22;20.67;;;4.60;;
39032;SDS011;24794;51.982;5.878;2023-01-10T05:08:23;20.85;;;4.45;;
39032;SDS011;24794;51.982;5.878;2023-01-10T05:09:24;22.15;;;4.75;;
39032;SDS011;24794;51.982;5.878;2023-01-10T05:10:24;22.23;;;4.30;;
39032;SDS011;24794;51.982;5.878;2023-01-10T05:11:25;24.25;;;5.00;;
39032;SDS011;24794;51.982;5.878;2023-01-10T05:12:26;22.95;;;4.47;;
39032;SDS011;24794;51.982;5.878;2023-01-10T05:13:26;15.98;;;3.78;;
39032;SDS011;24794;51.982;5.878;2023-01-10T05:14:27;23.73;;;4.70;;
39032;SDS011;24794;51.982;5.878;2023-01-10T05:15:27;17.73;;;3.85;;
39032;SDS011;24794;51.982;5.878;2023-01-10T05:16:28;19.50;;;4.10;;
39032;SDS011;24794;51.982;5.878;2023-01-10T05:17:29;24.30;;;4.25;;
39032;SDS011;24794;51.982;5.878;2023-01-10T05:18:29;21.42;;;4.00;;
39032;SDS011;24794;51.982;5.878;2023-01-10T05:19:30;22.23;;;5.10;;
39032;SDS011;24794;51.982;5.878;2023-01-10T05:20:31;17.45;;;4.30;;
39032;SDS011;24794;51.982;5.878;2023-01-10T05:21:31;22.15;;;4.40;;
39032;SDS011;24794;51.982;5.878;2023-01-10T05:22:32;18.15;;;3.80;;
39032;SDS011;24794;51.982;5.878;2023-01-10T05:23:33;20.58;;;3.80;;
39032;SDS011;24794;51.982;5.878;2023-01-10T05:24:34;19.88;;;3.88;;
39032;SDS011;24794;51.982;5.878;2023-01-10T05:25:35;15.93;;;4.13;;
39032;SDS011;24794;51.982;5.878;2023-01-10T05:26:35;23.17;;;4.55;;
39032;SDS011;24794;51.982;5.878;2023-01-10T05:27:39;19.70;;;4.07;;
39032;SDS011;24794;51.982;5.878;2023-01-10T05:28:41;32.35;;;4.55;;
39032;SDS011;24794;51.982;5.878;2023-01-10T05:29:42;23.52;;;4.30;;
39032;SDS011;24794;51.982;5.878;2023-01-10T05:30:43;17.92;;;3.72;;
39032;SDS011;24794;51.982;5.878;2023-01-10T05:31:43;22.38;;;3.80;;
39032;SDS011;24794;51.982;5.878;2023-01-10T05:32:44;17.98;;;4.10;;
39032;SDS011;24794;51.982;5.878;2023-01-10T05:33:45;18.90;;;3.83;;
39032;SDS011;24794;51.982;5.878;2023-01-10T05:34:47;24.25;;;4.40;;
39032;SDS011;24794;51.982;5.878;2023-01-10T05:35:47;28.27;;;4.20;;
39032;SDS011;24794;51.982;5.878;2023-01-10T05:36:48;29.13;;;4.47;;
39032;SDS011;24794;51.982;5.878;2023-01-10T05:37:48;21.85;;;3.88;;
39032;SDS011;24794;51.982;5.878;2023-01-10T05:38:49;21.48;;;4.10;;
39032;SDS011;24794;51.982;5.878;2023-01-10T05:39:50;21.23;;;3.92;;
39032;SDS011;24794;51.982;5.878;2023-01-10T05:40:53;23.05;;;3.92;;
39032;SDS011;24794;51.982;5.878;2023-01-10T05:41:55;15.98;;;3.95;;
39032;SDS011;24794;51.982;5.878;2023-01-10T05:42:55;25.23;;;4.13;;
39032;SDS011;24794;51.982;5.878;2023-01-10T05:43:56;26.90;;;3.78;;
39032;SDS011;24794;51.982;5.878;2023-01-10T05:44:57;18.13;;;3.63;;
39032;SDS011;24794;51.982;5.878;2023-01-10T05:45:57;22.38;;;3.92;;
39032;SDS011;24794;51.982;5.878;2023-01-10T05:46:58;20.83;;;4.25;;
39032;SDS011;24794;51.982;5.878;2023-01-10T05:47:58;26.83;;;4.72;;
39032;SDS011;24794;51.982;5.878;2023-01-10T05:48:59;29.30;;;5.10;;
39032;SDS011;24794;51.982;5.878;2023-01-10T05:49:59;19.30;;;4.10;;
39032;SDS011;24794;51.982;5.878;2023-01-10T05:51:00;20.73;;;4.03;;
39032;SDS011;24794;51.982;5.878;2023-01-10T05:52:01;23.42;;;3.75;;
39032;SDS011;24794;51.982;5.878;2023-01-10T05:53:02;22.42;;;4.10;;
39032;SDS011;24794;51.982;5.878;2023-01-10T05:54:04;23.17;;;4.55;;
39032;SDS011;24794;51.982;5.878;2023-01-10T05:55:05;20.67;;;3.65;;
39032;SDS011;24794;51.982;5.878;2023-01-10T05:56:06;27.50;;;5.68;;
39032;SDS011;24794;51.982;5.878;2023-01-10T05:57:08;17.15;;;3.90;;
39032;SDS011;24794;51.982;5.878;2023-01-10T05:58:08;19.58;;;4.13;;
39032;SDS011;24794;51.982;5.878;2023-01-10T05:59:12;24.55;;;4.18;;
39032;SDS011;24794;51.982;5.878;2023-01-10T06:00:13;18.52;;;4.13;;
39032;SDS011;24794;51.982;5.878;2023-01-10T06:01:14;25.60;;;3.67;;
39032;SDS011;24794;51.982;5.878;2023-01-10T06:02:15;22.02;;;4.35;;
39032;SDS011;24794;51.982;5.878;2023-01-10T06:03:15;22.73;;;3.88;;
39032;SDS011;24794;51.982;5.878;2023-01-10T06:04:17;28.15;;;4.57;;
39032;SDS011;24794;51.982;5.878;2023-01-10T06:05:17;22.83;;;3.85;;
39032;SDS011;24794;51.982;5.878;2023-01-10T06:06:18;24.27;;;4.03;;
39032;SDS011;24794;51.982;5.878;2023-01-10T06:07:18;26.73;;;4.53;;
39032;SDS011;24794;51.982;5.878;2023-01-10T06:08:19;29.73;;;5.15;;
39032;SDS011;24794;51.982;5.878;2023-01-10T06:09:20;18.40;;;4.05;;
39032;SDS011;24794;51.982;5.878;2023-01-10T06:10:21;26.25;;;4.13;;
39032;SDS011;24794;51.982;5.878;2023-01-10T06:11:21;21.27;;;4.38;;
39032;SDS011;24794;51.982;5.878;2023-01-10T06:12:28;23.95;;;4.38;;
39032;SDS011;24794;51.982;5.878;2023-01-10T06:13:28;24.83;;;4.97;;
39032;SDS011;24794;51.982;5.878;2023-01-10T06:14:29;26.35;;;4.40;;
39032;SDS011;24794;51.982;5.878;2023-01-10T06:15:30;26.52;;;3.92;;
39032;SDS011;24794;51.982;5.878;2023-01-10T06:16:31;24.88;;;4.93;;
39032;SDS011;24794;51.982;5.878;2023-01-10T06:17:32;26.02;;;5.00;;
39032;SDS011;24794;51.982;5.878;2023-01-10T06:18:33;28.95;;;5.05;;
39032;SDS011;24794;51.982;5.878;2023-01-10T06:19:33;23.33;;;4.10;;
39032;SDS011;24794;51.982;5.878;2023-01-10T06:20:34;21.67;;;5.78;;
39032;SDS011;24794;51.982;5.878;2023-01-10T06:21:34;36.25;;;7.88;;
39032;SDS011;24794;51.982;5.878;2023-01-10T06:22:35;25.52;;;6.70;;
39032;SDS011;24794;51.982;5.878;2023-01-10T06:23:36;29.20;;;7.38;;
39032;SDS011;24794;51.982;5.878;2023-01-10T06:24:38;28.08;;;5.22;;
39032;SDS011;24794;51.982;5.878;2023-01-10T06:25:39;31.73;;;6.88;;
39032;SDS011;24794;51.982;5.878;2023-01-10T06:26:40;41.47;;;10.23;;
39032;SDS011;24794;51.982;5.878;2023-01-10T06:27:41;39.58;;;8.55;;
39032;SDS011;24794;51.982;5.878;2023-01-10T06:28:43;33.17;;;8.40;;
39032;SDS011;24794;51.982;5.878;2023-01-10T06:29:43;45.05;;;15.38;;
39032;SDS011;24794;51.982;5.878;2023-01-10T06:30:44;66.97;;;20.67;;
39032;SDS011;24794;51.982;5.878;2023-01-10T06:31:45;45.15;;;14.05;;
39032;SDS011;24794;51.982;5.878;2023-01-10T06:32:45;42.70;;;11.82;;
39032;SDS011;24794;51.982;5.878;2023-01-10T06:33:49;43.85;;;11.90;;
39032;SDS011;24794;51.982;5.878;2023-01-10T06:34:49;33.17;;;9.57;;
39032;SDS011;24794;51.982;5.878;2023-01-10T06:35:50;36.70;;;10.82;;
39032;SDS011;24794;51.982;5.878;2023-01-10T06:36:51;39.67;;;13.25;;
39032;SDS011;24794;51.982;5.878;2023-01-10T06:37:51;32.20;;;7.30;;
39032;SDS011;24794;51.982;5.878;2023-01-10T06:38:52;30.00;;;9.00;;
39032;SDS011;24794;51.982;5.878;2023-01-10T06:39:52;33.47;;;8.93;;
39032;SDS011;24794;51.982;5.878;2023-01-10T06:40:53;28.90;;;7.97;;
39032;SDS011;24794;51.982;5.878;2023-01-10T06:41:53;29.60;;;6.15;;
39032;SDS011;24794;51.982;5.878;2023-01-10T06:42:54;23.98;;;6.40;;
39032;SDS011;24794;51.982;5.878;2023-01-10T06:43:55;28.25;;;6.97;;
39032;SDS011;24794;51.982;5.878;2023-01-10T06:44:55;25.52;;;5.55;;
39032;SDS011;24794;51.982;5.878;2023-01-10T06:45:56;24.02;;;5.70;;
39032;SDS011;24794;51.982;5.878;2023-01-10T06:46:56;25.65;;;5.22;;
39032;SDS011;24794;51.982;5.878;2023-01-10T06:47:57;20.98;;;4.32;;